createdAt,value
2017-09-13T00:01:42.792Z,11.06
2017-09-13T00:04:09.815Z,11.07
2017-09-13T00:06:36.103Z,11.10
2017-09-13T00:09:03.114Z,11.08
2017-09-13T00:11:29.533Z,10.98
2017-09-13T00:13:55.766Z,10.94
2017-09-13T00:16:22.004Z,10.87
2017-09-13T00:18:48.364Z,10.86
2017-09-13T00:21:14.571Z,10.80
2017-09-13T00:23:40.789Z,10.74
2017-09-13T00:26:07.113Z,10.80
2017-09-13T00:28:34.193Z,10.76
2017-09-13T00:31:00.413Z,10.65
2017-09-13T00:33:26.697Z,10.61
2017-09-13T00:35:53.004Z,10.55
2017-09-13T00:38:19.214Z,10.57
2017-09-13T00:40:46.236Z,10.59
2017-09-13T00:43:12.552Z,10.67
2017-09-13T00:45:38.865Z,10.72
2017-09-13T00:48:05.174Z,10.62
2017-09-13T00:50:32.421Z,10.55
2017-09-13T00:52:59.429Z,10.47
2017-09-13T00:55:25.662Z,10.39
2017-09-13T00:57:51.874Z,10.28
2017-09-13T01:00:18.322Z,10.28
2017-09-13T01:02:44.612Z,10.26
2017-09-13T01:05:11.602Z,10.32
2017-09-13T01:07:37.927Z,10.31
2017-09-13T01:10:04.165Z,10.29
2017-09-13T01:12:30.429Z,10.30
2017-09-13T01:14:56.625Z,10.28
2017-09-13T01:17:22.922Z,10.25
2017-09-13T01:19:49.124Z,10.26
2017-09-13T01:22:15.335Z,10.32
2017-09-13T01:24:41.685Z,10.35
2017-09-13T01:27:07.955Z,10.36
2017-09-13T01:29:34.242Z,10.33
2017-09-13T01:32:00.571Z,10.39
2017-09-13T01:34:27.566Z,10.38
2017-09-13T01:36:53.917Z,10.37
2017-09-13T01:39:20.229Z,10.34
2017-09-13T01:41:46.445Z,10.29
2017-09-13T01:44:13.408Z,10.24
2017-09-13T01:46:39.814Z,10.17
2017-09-13T01:49:06.087Z,10.13
2017-09-13T01:51:32.307Z,10.03
2017-09-13T01:53:58.578Z,10.04
2017-09-13T01:56:24.924Z,10.05
2017-09-13T01:58:51.112Z,10.04
2017-09-13T02:01:17.350Z,10.06
2017-09-13T02:03:43.582Z,10.07
2017-09-13T02:06:09.808Z,10.01
2017-09-13T02:08:36.073Z,10.13
2017-09-13T02:11:02.309Z,10.21
2017-09-13T02:13:28.643Z,10.23
2017-09-13T02:15:54.946Z,10.28
2017-09-13T02:18:21.176Z,10.40
2017-09-13T02:20:47.421Z,10.47
2017-09-13T02:23:13.777Z,10.47
2017-09-13T02:25:41.018Z,10.47
2017-09-13T02:28:07.234Z,10.50
2017-09-13T02:30:34.238Z,10.52
2017-09-13T02:33:00.594Z,10.47
2017-09-13T02:35:26.874Z,10.47
2017-09-13T02:37:53.098Z,10.43
2017-09-13T02:40:19.285Z,10.38
2017-09-13T02:42:45.613Z,10.35
2017-09-13T02:45:11.816Z,10.33
2017-09-13T02:47:38.098Z,10.31
2017-09-13T02:50:04.443Z,10.33
2017-09-13T02:52:31.434Z,10.42
2017-09-13T02:54:57.730Z,10.42
2017-09-13T02:57:23.997Z,10.41
2017-09-13T02:59:50.244Z,10.36
2017-09-13T03:02:16.598Z,10.42
2017-09-13T03:04:42.837Z,10.36
2017-09-13T03:07:09.017Z,10.35
2017-09-13T03:09:36.145Z,10.35
2017-09-13T03:12:02.433Z,10.35
2017-09-13T03:14:28.681Z,10.24
2017-09-13T03:16:54.960Z,10.06
2017-09-13T03:19:21.142Z,9.89
2017-09-13T03:21:47.497Z,9.81
2017-09-13T03:24:13.853Z,9.72
2017-09-13T03:26:40.145Z,9.61
2017-09-13T03:29:06.398Z,9.66
2017-09-13T03:31:32.623Z,9.65
2017-09-13T03:33:58.946Z,9.71
2017-09-13T03:36:28.925Z,9.65
2017-09-13T03:38:55.189Z,9.67
2017-09-13T03:41:22.118Z,9.70
2017-09-13T03:43:48.405Z,9.57
2017-09-13T03:46:14.613Z,9.56
2017-09-13T03:48:41.593Z,9.49
2017-09-13T03:51:07.838Z,9.49
2017-09-13T03:53:34.033Z,9.42
2017-09-13T03:56:00.299Z,9.31
2017-09-13T03:58:26.514Z,9.24
2017-09-13T04:00:52.964Z,9.13
2017-09-13T04:03:19.207Z,9.01
2017-09-13T04:05:45.417Z,8.98
2017-09-13T04:08:11.897Z,8.94
2017-09-13T04:10:38.144Z,8.92
2017-09-13T04:13:04.434Z,8.92
2017-09-13T04:15:30.723Z,8.93
2017-09-13T04:17:57.008Z,8.89
2017-09-13T04:20:23.242Z,8.82
2017-09-13T04:22:49.494Z,8.73
2017-09-13T04:25:15.848Z,8.54
2017-09-13T04:27:42.114Z,8.38
2017-09-13T04:30:09.093Z,8.20
2017-09-13T04:32:35.352Z,8.10
2017-09-13T04:35:01.620Z,8.05
2017-09-13T04:37:28.634Z,8.05
2017-09-13T04:39:54.865Z,8.25
2017-09-13T04:42:21.113Z,8.23
2017-09-13T04:44:47.366Z,8.31
2017-09-13T04:47:13.812Z,8.46
2017-09-13T04:49:40.105Z,8.49
2017-09-13T04:52:06.394Z,8.52
2017-09-13T04:54:32.726Z,8.51
2017-09-13T04:56:58.997Z,8.55
2017-09-13T04:59:25.934Z,8.64
2017-09-13T05:01:52.995Z,8.79
2017-09-13T05:04:19.244Z,8.82
2017-09-13T05:06:45.505Z,8.86
2017-09-13T05:09:11.878Z,8.91
2017-09-13T05:11:38.245Z,8.95
2017-09-13T05:14:04.572Z,8.94
2017-09-13T05:16:31.561Z,8.92
2017-09-13T05:18:57.817Z,8.92
2017-09-13T05:21:26.090Z,8.90
2017-09-13T05:23:52.409Z,8.90
2017-09-13T05:26:18.645Z,8.90
2017-09-13T05:28:44.953Z,8.93
2017-09-13T05:31:11.353Z,8.95
2017-09-13T05:33:37.682Z,9.03
2017-09-13T05:36:04.012Z,9.15
2017-09-13T05:38:30.757Z,9.22
2017-09-13T05:40:56.987Z,9.33
2017-09-13T05:43:23.168Z,9.47
2017-09-13T05:45:50.489Z,9.65
2017-09-13T05:48:16.801Z,9.86
2017-09-13T05:50:43.018Z,10.07
2017-09-13T05:53:09.249Z,10.29
2017-09-13T05:55:35.520Z,10.52
2017-09-13T05:58:01.760Z,10.73
2017-09-13T06:00:28.110Z,10.93
2017-09-13T06:02:54.477Z,11.06
2017-09-13T06:05:20.757Z,11.12
2017-09-13T06:07:46.981Z,11.20
2017-09-13T06:10:13.213Z,11.21
2017-09-13T06:12:39.454Z,11.33
2017-09-13T06:15:05.713Z,11.40
2017-09-13T06:17:31.998Z,11.49
2017-09-13T06:19:59.079Z,11.63
2017-09-13T06:22:27.403Z,11.69
2017-09-13T06:24:53.727Z,11.65
2017-09-13T06:27:20.044Z,11.73
2017-09-13T06:29:46.245Z,11.80
2017-09-13T06:32:12.542Z,11.88
2017-09-13T06:34:38.862Z,11.96
2017-09-13T06:37:05.188Z,12.12
2017-09-13T06:39:31.609Z,12.32
2017-09-13T06:41:57.825Z,12.52
2017-09-13T06:44:24.044Z,12.81
2017-09-13T06:46:51.003Z,13.03
2017-09-13T06:49:17.974Z,13.15
2017-09-13T06:51:44.256Z,13.11
2017-09-13T06:54:10.596Z,13.17
2017-09-13T06:56:37.036Z,13.26
2017-09-13T06:59:03.326Z,13.32
2017-09-13T07:01:30.047Z,13.40
2017-09-13T07:03:56.337Z,13.46
2017-09-13T07:06:22.870Z,13.54
2017-09-13T07:08:49.214Z,13.56
2017-09-13T07:11:15.418Z,13.62
2017-09-13T07:13:41.666Z,13.68
2017-09-13T07:16:08.018Z,13.77
2017-09-13T07:18:34.321Z,13.84
2017-09-13T07:21:00.553Z,13.88
2017-09-13T07:23:26.779Z,14.05
2017-09-13T07:25:53.081Z,14.18
2017-09-13T07:28:20.272Z,14.41
2017-09-13T07:30:47.483Z,14.49
2017-09-13T07:33:13.773Z,14.62
2017-09-13T07:35:40.152Z,14.68
2017-09-13T07:38:06.333Z,14.62
2017-09-13T07:40:32.585Z,14.61
2017-09-13T07:42:58.848Z,14.71
2017-09-13T07:45:25.146Z,14.63
2017-09-13T07:47:51.399Z,14.58
2017-09-13T07:50:17.633Z,14.52
2017-09-13T07:52:43.858Z,14.57
2017-09-13T07:55:10.133Z,14.59
2017-09-13T07:57:37.109Z,14.56
2017-09-13T08:00:04.066Z,14.63
2017-09-13T08:02:31.050Z,14.67
2017-09-13T08:04:57.436Z,14.80
2017-09-13T08:07:23.736Z,14.78
2017-09-13T08:09:49.929Z,14.66
2017-09-13T08:12:16.980Z,14.78
2017-09-13T08:14:43.982Z,14.81
2017-09-13T08:17:10.193Z,14.85
2017-09-13T08:19:36.464Z,14.88
2017-09-13T08:22:03.637Z,14.91
2017-09-13T08:24:29.916Z,14.89
2017-09-13T08:26:56.178Z,14.90
2017-09-13T08:29:22.415Z,14.98
2017-09-13T08:31:48.643Z,15.24
2017-09-13T08:34:14.861Z,15.32
2017-09-13T08:36:41.124Z,15.24
2017-09-13T08:39:07.420Z,15.14
2017-09-13T08:41:33.683Z,15.16
2017-09-13T08:43:59.886Z,15.16
2017-09-13T08:46:26.147Z,15.20
2017-09-13T08:48:52.342Z,15.32
2017-09-13T08:51:23.220Z,15.35
2017-09-13T08:53:53.836Z,15.25
2017-09-13T08:56:25.409Z,15.25
2017-09-13T08:58:56.932Z,15.34
2017-09-13T09:01:27.233Z,15.60
2017-09-13T09:03:59.268Z,16.01
2017-09-13T09:06:30.600Z,16.50
2017-09-13T09:09:02.775Z,16.72
2017-09-13T09:11:33.462Z,16.49
2017-09-13T09:14:03.777Z,16.51
2017-09-13T09:16:35.097Z,16.61
2017-09-13T09:19:06.661Z,16.80
2017-09-13T09:21:38.145Z,16.78
2017-09-13T09:24:08.075Z,16.91
2017-09-13T09:26:39.910Z,17.20
2017-09-13T09:29:11.696Z,17.25
2017-09-13T09:31:43.466Z,17.33
2017-09-13T09:34:13.911Z,17.33
2017-09-13T09:36:44.118Z,17.43
2017-09-13T09:39:14.350Z,17.64
2017-09-13T09:41:46.372Z,17.66
2017-09-13T09:44:16.107Z,17.85
2017-09-13T09:46:47.330Z,17.94
2017-09-13T09:49:17.654Z,18.20
2017-09-13T09:51:48.255Z,18.63
2017-09-13T09:54:18.285Z,18.92
2017-09-13T09:56:50.388Z,19.16
2017-09-13T09:59:20.707Z,19.75
2017-09-13T10:01:50.768Z,19.84
2017-09-13T10:04:21.952Z,19.50
2017-09-13T10:06:53.247Z,19.13
2017-09-13T10:09:24.634Z,18.89
2017-09-13T10:11:56.422Z,18.69
2017-09-13T10:14:26.903Z,18.30
2017-09-13T10:16:58.244Z,17.73
2017-09-13T10:19:28.893Z,17.22
2017-09-13T10:22:00.444Z,16.65
2017-09-13T10:24:31.603Z,16.25
2017-09-13T10:27:03.696Z,16.09
2017-09-13T10:29:36.006Z,16.32
2017-09-13T10:32:06.705Z,16.72
2017-09-13T10:34:37.504Z,16.90
2017-09-13T10:37:09.344Z,16.74
2017-09-13T10:39:44.167Z,16.47
2017-09-13T10:42:15.426Z,16.34
2017-09-13T10:44:46.130Z,16.41
2017-09-13T10:47:16.897Z,16.62
2017-09-13T10:49:47.474Z,16.69
2017-09-13T10:52:19.455Z,16.65
2017-09-13T10:54:50.135Z,16.44
2017-09-13T10:57:20.617Z,16.55
2017-09-13T10:59:50.439Z,16.56
2017-09-13T11:02:21.264Z,16.70
2017-09-13T11:04:52.100Z,16.86
2017-09-13T11:07:20.490Z,17.00
2017-09-13T11:09:52.176Z,17.19
2017-09-13T11:12:24.477Z,17.35
2017-09-13T11:14:55.750Z,17.56
2017-09-13T11:17:26.836Z,17.64
2017-09-13T11:19:56.951Z,18.02
2017-09-13T11:22:27.439Z,18.13
2017-09-13T11:24:57.902Z,17.84
2017-09-13T11:27:28.929Z,17.93
2017-09-13T11:30:00.180Z,18.35
2017-09-13T11:32:31.704Z,18.73
2017-09-13T11:35:03.361Z,19.27
2017-09-13T11:37:34.568Z,19.16
2017-09-13T11:40:05.183Z,19.04
2017-09-13T11:42:38.528Z,18.94
2017-09-13T11:45:08.918Z,18.98
2017-09-13T11:47:39.513Z,18.94
2017-09-13T11:50:09.866Z,19.10
2017-09-13T11:52:41.654Z,19.23
2017-09-13T11:55:13.167Z,19.30
2017-09-13T11:57:43.988Z,19.46
2017-09-13T12:00:14.411Z,19.48
2017-09-13T12:02:45.725Z,19.36
2017-09-13T12:05:16.956Z,19.40
2017-09-13T12:07:49.664Z,20.31
2017-09-13T12:10:19.877Z,20.63
2017-09-13T12:12:50.863Z,20.62
2017-09-13T12:15:22.766Z,20.52
2017-09-13T12:17:54.427Z,20.92
2017-09-13T12:20:25.484Z,21.06
2017-09-13T12:22:56.644Z,21.54
2017-09-13T12:25:27.016Z,21.90
2017-09-13T12:27:58.697Z,22.62
2017-09-13T12:30:29.418Z,21.85
2017-09-13T12:33:00.742Z,22.02
2017-09-13T12:35:31.066Z,22.45
2017-09-13T12:38:02.590Z,22.57
2017-09-13T12:40:32.608Z,22.78
2017-09-13T12:43:05.722Z,22.26
2017-09-13T12:45:39.067Z,21.25
2017-09-13T12:48:10.356Z,20.62
2017-09-13T12:50:40.955Z,20.02
2017-09-13T12:53:12.434Z,19.94
2017-09-13T12:55:38.670Z,19.85
2017-09-13T12:58:04.846Z,19.84
2017-09-13T13:00:31.206Z,19.60
2017-09-13T13:02:58.189Z,19.39
2017-09-13T13:05:24.440Z,19.22
2017-09-13T13:07:50.702Z,19.12
2017-09-13T13:10:16.914Z,19.15
2017-09-13T13:12:43.142Z,19.06
2017-09-13T13:15:09.390Z,18.86
2017-09-13T13:17:35.609Z,18.87
2017-09-13T13:20:01.824Z,18.87
2017-09-13T13:22:28.085Z,18.81
2017-09-13T13:24:54.318Z,18.67
2017-09-13T13:27:20.871Z,18.65
2017-09-13T13:29:47.077Z,18.63
2017-09-13T13:32:13.331Z,18.50
2017-09-13T13:34:39.559Z,18.28
2017-09-13T13:37:05.790Z,18.09
2017-09-13T13:39:31.993Z,17.89
2017-09-13T13:41:58.237Z,17.81
2017-09-13T13:44:25.226Z,17.75
2017-09-13T13:46:51.459Z,17.79
2017-09-13T13:49:17.701Z,17.87
2017-09-13T13:51:43.923Z,18.00
2017-09-13T13:54:10.141Z,18.18
2017-09-13T13:56:36.421Z,18.41
2017-09-13T13:59:02.756Z,18.66
2017-09-13T14:01:29.145Z,18.81
2017-09-13T14:03:55.403Z,19.07
2017-09-13T14:06:21.653Z,19.08
2017-09-13T14:08:47.890Z,19.20
2017-09-13T14:11:14.199Z,19.23
2017-09-13T14:13:40.502Z,19.15
2017-09-13T14:16:07.687Z,18.93
2017-09-13T14:18:33.921Z,18.82
2017-09-13T14:21:00.182Z,18.78
2017-09-13T14:23:26.381Z,18.65
2017-09-13T14:25:52.767Z,18.45
2017-09-13T14:28:19.106Z,18.29
2017-09-13T14:30:45.426Z,18.17
2017-09-13T14:33:11.676Z,18.05
2017-09-13T14:35:38.005Z,17.94
2017-09-13T14:38:04.342Z,17.91
2017-09-13T14:40:30.566Z,17.78
2017-09-13T14:42:56.788Z,17.67
2017-09-13T14:45:25.066Z,17.57
2017-09-13T14:47:51.322Z,17.55
2017-09-13T14:50:17.650Z,17.46
2017-09-13T14:52:43.841Z,17.40
2017-09-13T14:55:10.835Z,17.37
2017-09-13T14:57:37.423Z,17.33
2017-09-13T15:00:03.719Z,17.36
2017-09-13T15:02:29.947Z,17.29
2017-09-13T15:04:56.202Z,17.25
2017-09-13T15:07:22.498Z,17.26
2017-09-13T15:09:48.899Z,17.26
2017-09-13T15:12:15.871Z,17.32
2017-09-13T15:14:42.846Z,17.30
2017-09-13T15:17:09.149Z,17.36
2017-09-13T15:19:36.148Z,17.35
2017-09-13T15:22:02.397Z,17.34
2017-09-13T15:24:28.751Z,17.25
2017-09-13T15:26:55.105Z,17.23
2017-09-13T15:29:22.127Z,17.33
2017-09-13T15:31:48.488Z,17.31
2017-09-13T15:34:16.525Z,17.29
2017-09-13T15:36:42.738Z,17.31
2017-09-13T15:39:09.087Z,17.28
2017-09-13T15:41:35.313Z,17.25
2017-09-13T15:44:01.545Z,17.23
2017-09-13T15:46:27.742Z,17.25
2017-09-13T15:48:54.764Z,17.26
2017-09-13T15:51:21.094Z,17.28
2017-09-13T15:53:47.378Z,17.22
2017-09-13T15:56:14.317Z,17.20
2017-09-13T15:58:41.334Z,17.16
2017-09-13T16:01:07.643Z,17.11
2017-09-13T16:03:34.378Z,17.16
2017-09-13T16:06:00.619Z,17.28
2017-09-13T16:08:26.886Z,17.37
2017-09-13T16:10:53.078Z,17.56
2017-09-13T16:13:19.554Z,17.63
2017-09-13T16:15:45.841Z,17.69
2017-09-13T16:18:12.105Z,17.77
2017-09-13T16:20:38.400Z,17.83
2017-09-13T16:23:05.416Z,17.92
2017-09-13T16:25:31.621Z,18.05
2017-09-13T16:27:57.923Z,18.04
2017-09-13T16:30:25.144Z,18.04
2017-09-13T16:32:51.478Z,18.03
2017-09-13T16:35:17.701Z,18.13
2017-09-13T16:37:43.938Z,18.20
2017-09-13T16:40:10.308Z,18.29
2017-09-13T16:42:36.594Z,18.37
2017-09-13T16:45:02.910Z,18.38
2017-09-13T16:47:29.203Z,18.45
2017-09-13T16:49:55.621Z,18.46
2017-09-13T16:52:21.901Z,18.43
2017-09-13T16:54:49.142Z,18.31
2017-09-13T16:57:15.668Z,18.13
2017-09-13T16:59:42.020Z,17.77
2017-09-13T17:02:08.257Z,17.66
2017-09-13T17:04:35.222Z,17.67
2017-09-13T17:07:01.499Z,17.71
2017-09-13T17:09:27.710Z,17.88
2017-09-13T17:11:53.981Z,17.97
2017-09-13T17:14:20.216Z,17.93
2017-09-13T17:16:46.505Z,17.82
2017-09-13T17:19:12.949Z,17.75
2017-09-13T17:21:39.910Z,17.75
2017-09-13T17:24:06.164Z,17.75
2017-09-13T17:26:32.443Z,17.87
2017-09-13T17:28:58.802Z,17.90
2017-09-13T17:31:25.088Z,17.93
2017-09-13T17:33:51.699Z,17.93
2017-09-13T17:36:17.977Z,17.98
2017-09-13T17:38:44.385Z,17.91
2017-09-13T17:41:10.667Z,17.96
2017-09-13T17:43:36.985Z,18.09
2017-09-13T17:46:03.290Z,18.06
2017-09-13T17:48:35.359Z,18.01
2017-09-13T17:51:02.051Z,18.13
2017-09-13T17:53:28.382Z,18.09
2017-09-13T17:55:54.706Z,18.12
2017-09-13T17:58:20.949Z,18.16
2017-09-13T18:00:47.281Z,18.15
2017-09-13T18:03:13.798Z,18.14
2017-09-13T18:05:45.367Z,18.07
2017-09-13T18:08:15.564Z,18.04
2017-09-13T18:10:41.846Z,17.95
2017-09-13T18:13:08.159Z,17.83
2017-09-13T18:15:34.378Z,17.76
2017-09-13T18:18:00.635Z,17.74
2017-09-13T18:20:26.870Z,17.77
2017-09-13T18:22:53.074Z,17.67
2017-09-13T18:25:19.342Z,17.56
2017-09-13T18:27:45.565Z,17.53
2017-09-13T18:30:11.822Z,17.51
2017-09-13T18:32:38.149Z,17.46
2017-09-13T18:35:04.353Z,17.48
2017-09-13T18:37:30.591Z,17.41
2017-09-13T18:39:56.860Z,17.43
2017-09-13T18:42:23.190Z,17.38
2017-09-13T18:44:49.413Z,17.44
2017-09-13T18:47:15.753Z,17.44
2017-09-13T18:49:42.094Z,17.49
2017-09-13T18:52:09.331Z,17.56
2017-09-13T18:54:35.528Z,17.51
2017-09-13T18:57:02.488Z,17.56
2017-09-13T18:59:29.485Z,17.61
2017-09-13T19:01:55.815Z,17.61
2017-09-13T19:04:22.034Z,17.66
2017-09-13T19:06:48.274Z,17.65
2017-09-13T19:09:14.547Z,17.71
2017-09-13T19:11:40.874Z,17.69
2017-09-13T19:14:07.273Z,17.71
2017-09-13T19:16:33.562Z,17.81
2017-09-13T19:19:00.174Z,17.80
2017-09-13T19:21:26.482Z,17.82
2017-09-13T19:23:52.766Z,17.76
2017-09-13T19:26:19.258Z,17.75
2017-09-13T19:28:45.466Z,17.75
2017-09-13T19:31:11.814Z,17.79
2017-09-13T19:33:38.082Z,17.81
2017-09-13T19:36:04.330Z,17.76
2017-09-13T19:38:30.577Z,17.83
2017-09-13T19:40:56.923Z,17.90
2017-09-13T19:43:23.242Z,18.01
2017-09-13T19:45:49.433Z,18.05
2017-09-13T19:48:15.861Z,18.05
2017-09-13T19:50:43.024Z,18.08
2017-09-13T19:53:09.339Z,18.13
2017-09-13T19:55:36.337Z,18.19
2017-09-13T19:58:02.662Z,18.19
2017-09-13T20:00:28.926Z,18.16
2017-09-13T20:02:55.175Z,18.25
2017-09-13T20:05:21.900Z,18.38
2017-09-13T20:07:48.124Z,18.42
2017-09-13T20:10:14.615Z,18.44
2017-09-13T20:12:42.654Z,18.45
2017-09-13T20:15:08.906Z,18.51
2017-09-13T20:17:35.229Z,18.65
2017-09-13T20:20:01.466Z,18.70
2017-09-13T20:22:27.654Z,18.61
2017-09-13T20:24:54.245Z,18.59
2017-09-13T20:27:20.568Z,18.75
2017-09-13T20:29:46.807Z,18.77
2017-09-13T20:32:14.078Z,19.03
2017-09-13T20:34:40.282Z,19.09
2017-09-13T20:37:07.589Z,19.05
2017-09-13T20:39:33.925Z,19.08
2017-09-13T20:42:01.125Z,19.19
2017-09-13T20:44:27.398Z,19.15
2017-09-13T20:46:53.657Z,19.06
2017-09-13T20:49:20.182Z,19.00
2017-09-13T20:51:46.524Z,19.08
2017-09-13T20:54:12.816Z,19.06
2017-09-13T20:56:39.094Z,19.03
2017-09-13T20:59:05.452Z,19.11
2017-09-13T21:01:32.462Z,19.09
2017-09-13T21:04:01.046Z,19.12
2017-09-13T21:06:27.401Z,19.12
2017-09-13T21:08:53.741Z,19.04
2017-09-13T21:11:20.112Z,18.99
2017-09-13T21:13:47.813Z,18.89
2017-09-13T21:16:14.165Z,18.92
2017-09-13T21:18:40.393Z,18.90
2017-09-13T21:21:07.148Z,18.92
2017-09-13T21:23:34.277Z,18.95
2017-09-13T21:26:01.098Z,18.88
2017-09-13T21:28:28.412Z,18.81
2017-09-13T21:30:55.537Z,18.76
2017-09-13T21:33:25.359Z,18.74
2017-09-13T21:35:53.261Z,18.75
2017-09-13T21:38:19.454Z,18.72
2017-09-13T21:40:46.100Z,18.71
2017-09-13T21:43:14.205Z,18.78
2017-09-13T21:45:41.591Z,18.72
2017-09-13T21:48:08.249Z,18.65
2017-09-13T21:50:36.285Z,18.67
2017-09-13T21:53:03.538Z,18.76
2017-09-13T21:55:34.875Z,18.83
2017-09-13T21:58:01.541Z,18.90
2017-09-13T22:00:28.106Z,18.85
2017-09-13T22:02:55.120Z,18.95
2017-09-13T22:05:21.810Z,18.96
2017-09-13T22:07:48.142Z,18.85
2017-09-13T22:10:14.711Z,18.79
2017-09-13T22:12:41.105Z,18.60
2017-09-13T22:15:07.385Z,18.58
2017-09-13T22:17:34.478Z,18.56
2017-09-13T22:20:01.147Z,18.58
2017-09-13T22:22:27.707Z,18.52
2017-09-13T22:24:54.898Z,18.55
2017-09-13T22:27:21.359Z,18.58
2017-09-13T22:29:47.593Z,18.52
2017-09-13T22:32:13.831Z,18.45
2017-09-13T22:34:40.090Z,18.46
2017-09-13T22:37:06.919Z,18.38
2017-09-13T22:39:34.054Z,18.32
2017-09-13T22:42:00.386Z,18.34
2017-09-13T22:44:26.613Z,18.30
2017-09-13T22:46:52.939Z,18.29
2017-09-13T22:49:19.899Z,18.30
2017-09-13T22:51:46.262Z,18.36
2017-09-13T22:54:13.405Z,18.44
2017-09-13T22:56:40.266Z,18.45
2017-09-13T22:59:07.681Z,18.55
2017-09-13T23:01:34.079Z,18.64
2017-09-13T23:04:00.399Z,18.66
2017-09-13T23:06:26.641Z,18.68
2017-09-13T23:08:52.858Z,18.67
2017-09-13T23:11:19.100Z,18.71
2017-09-13T23:13:45.417Z,18.66
2017-09-13T23:16:11.694Z,18.64
2017-09-13T23:18:38.097Z,18.71
2017-09-13T23:21:04.349Z,18.71
2017-09-13T23:23:30.598Z,18.60
2017-09-13T23:25:56.830Z,18.59
2017-09-13T23:28:23.133Z,18.60
2017-09-13T23:30:49.770Z,18.54
2017-09-13T23:33:16.063Z,18.50
2017-09-13T23:35:42.378Z,18.44
2017-09-13T23:38:08.578Z,18.40
2017-09-13T23:40:34.805Z,18.28
2017-09-13T23:43:01.790Z,18.32
2017-09-13T23:45:28.138Z,18.28
2017-09-13T23:47:54.466Z,18.25
2017-09-13T23:50:20.691Z,18.20
2017-09-13T23:52:46.926Z,18.12
2017-09-13T23:55:13.219Z,18.16
2017-09-13T23:57:40.225Z,18.16
